»·PEaware :: N221XG KBFI-KPDX

N221XG :: KBFI-KPDX

FLIGHT INFORMATION

Flight Status: Arrived
Operator: Privately registered:
United States
More flights under this callsign
Pilot: Ryan L. (9775)
Aircraft: BEECH AIRCRAFT SUPER KING AIR 350
(B350)
More flights by this aircraft type
Origin: KBFI Boeing Field/King Co Intl
United States
Destination: KPDX Portland Intl
United States
More flights between these airports :: More routes between these airports
Route: +KENT8 ZIGED SEA HELNS6
File this flight plan on PilotEdge
Remarks:
Altitude:
(Current/Filed)
17,000ft
Speed:
(Current/Filed)
280kts
Departed: 07-Sep-19 06:44 PM
Arrived: 07-Sep-19 07:25 PM
Distance/Time
Traveled:
117nm/0:41
Distance/Time
To Go:
Arrived

Flight Plot

Page will automatically refresh every two minutes.

Flight plan parsing failed; only flown route is shown


Map Options




Map Legend


Flown Route
Filed Route
Departure Airport
Arrival Airport
Navaid (VOR, NDB)
Fix

Horizontal Profiles

Position Reports

Time Latitude Longitude Heading Altitude Ground
Speed
07-Sep-19 18:28 47.524583 -122.300534 331 25ft 0kts
07-Sep-19 18:29 47.524583 -122.300534 331 25ft 0kts
07-Sep-19 18:30 47.524583 -122.300534 331 25ft 0kts
07-Sep-19 18:31 47.524583 -122.300534 331 25ft 0kts
07-Sep-19 18:32 47.524583 -122.300534 331 25ft 0kts
07-Sep-19 18:33 47.524583 -122.300534 331 25ft 0kts
07-Sep-19 18:34 47.524914 -122.300628 26 25ft 6kts
07-Sep-19 18:35 47.526311 -122.301372 329 25ft 5kts
07-Sep-19 18:36 47.529077 -122.303208 330 25ft 18kts
07-Sep-19 18:37 47.534170 -122.307512 330 25ft 22kts
07-Sep-19 18:38 47.539700 -122.312155 330 25ft 22kts
07-Sep-19 18:39 47.539921 -122.312216 81 25ft 6kts
07-Sep-19 18:40 47.539935 -122.312143 69 25ft 0kts
07-Sep-19 18:41 47.539935 -122.312143 69 25ft 0kts
07-Sep-19 18:42 47.539974 -122.312018 63 25ft 4kts
07-Sep-19 18:43 47.531231 -122.303439 151 58ft 109kts
07-Sep-19 18:44 47.499638 -122.277460 156 1256ft 138kts
07-Sep-19 18:45 47.463335 -122.246185 151 2023ft 178kts
07-Sep-19 18:46 47.418083 -122.208053 151 2001ft 191kts
07-Sep-19 18:47 47.368202 -122.166095 151 3474ft 186kts
07-Sep-19 18:48 47.322263 -122.166775 205 5488ft 181kts
07-Sep-19 18:49 47.276514 -122.197808 205 7489ft 183kts
07-Sep-19 18:50 47.230715 -122.230020 205 9593ft 183kts
07-Sep-19 18:51 47.186326 -122.262902 206 11669ft 177kts
07-Sep-19 18:52 47.146541 -122.296770 207 13393ft 175kts
07-Sep-19 18:53 47.102662 -122.310454 178 15076ft 172kts
07-Sep-19 18:54 47.055078 -122.307555 181 17023ft 177kts
07-Sep-19 18:55 46.995274 -122.306171 181 17012ft 242kts
07-Sep-19 18:56 46.926121 -122.305318 181 17000ft 267kts
07-Sep-19 18:57 46.852618 -122.304630 181 17003ft 273kts
07-Sep-19 18:58 46.777516 -122.303960 181 17016ft 271kts
07-Sep-19 18:59 46.701921 -122.303307 181 17028ft 270kts
07-Sep-19 19:00 46.626401 -122.302669 181 16999ft 271kts
07-Sep-19 19:01 46.550863 -122.302017 181 16999ft 271kts
07-Sep-19 19:02 46.475146 -122.301371 181 16998ft 271kts
07-Sep-19 19:03 46.405604 -122.300775 181 16640ft 264kts
07-Sep-19 19:04 46.331118 -122.300197 180 14527ft 266kts
07-Sep-19 19:05 46.257198 -122.299591 179 12854ft 264kts
07-Sep-19 19:06 46.184714 -122.295408 190 11493ft 262kts
07-Sep-19 19:07 46.124630 -122.352337 229 10184ft 264kts
07-Sep-19 19:08 46.057882 -122.389576 195 8643ft 262kts
07-Sep-19 19:09 45.988370 -122.415342 195 7185ft 256kts
07-Sep-19 19:10 45.919995 -122.439312 195 5302ft 250kts
07-Sep-19 19:11 45.855528 -122.462516 195 3971ft 215kts
07-Sep-19 19:12 45.798436 -122.483176 195 3965ft 203kts
07-Sep-19 19:13 45.744018 -122.503209 195 2995ft 197kts
07-Sep-19 19:14 45.692703 -122.522343 195 2593ft 187kts
07-Sep-19 19:15 45.643559 -122.527046 146 2131ft 183kts
07-Sep-19 19:16 45.606414 -122.470281 115 2105ft 210kts
07-Sep-19 19:17 45.581668 -122.393753 115 2099ft 213kts
07-Sep-19 19:18 45.545209 -122.346628 204 2080ft 168kts
07-Sep-19 19:19 45.525627 -122.389111 273 2126ft 150kts
07-Sep-19 19:20 45.536621 -122.447176 300 1992ft 144kts
07-Sep-19 19:21 45.554001 -122.491046 298 1280ft 122kts
07-Sep-19 19:22 45.568700 -122.529429 297 653ft 104kts
07-Sep-19 19:23 45.582806 -122.564978 300 89ft 101kts
07-Sep-19 19:24 45.588995 -122.581873 229 34ft 10kts
07-Sep-19 19:25 45.588122 -122.582589 208 34ft 6kts
07-Sep-19 19:26 45.587369 -122.583054 194 34ft 0kts
07-Sep-19 19:27 45.587369 -122.583054 194 34ft 0kts
07-Sep-19 19:28 45.587369 -122.583054 194 34ft 0kts

Navigation Log

Ident Type
Flight plan parsing failed, navigation log unavailable